Time;durP1;ratioP1;P1;durP2;ratioP2;P2;SDS_P1;SDS_P2;PMS_P1;PMS_P2;Temp;Humidity;BMP_temperature;BMP_pressure;BME280_temperature;BME280_humidity;BME280_pressure;Samples;Min_cycle;Max_cycle;Signal;HPM_P1;HPM_P2
2022/01/25 00:10:40;;;;;;;15.20;10.10;;;;;;;;;;5092135;28;20432;-67
2022/01/25 00:24:25;;;;;;;15.07;10.40;;;;;;;;;;5079790;28;20427;-68
2022/01/25 00:27:09;;;;;;;14.33;9.60;;;;;;;;;;5085529;28;20548;-68
2022/01/25 00:29:54;;;;;;;9.90;8.77;;;;;;;;;;5072515;28;20515;-68
2022/01/25 00:32:21;;;;;;;14.20;9.40;;;;;;;;;;5086793;28;20448;-68
2022/01/25 00:34:49;;;;;;;15.00;10.43;;;;;;;;;;5076303;28;20865;-68
2022/01/25 00:37:18;;;;;;;13.00;9.77;;;;;;;;;;5083701;28;20483;-68
2022/01/25 00:39:45;;;;;;;16.27;10.33;;;;;;;;;;5090442;28;20502;-68
2022/01/25 00:42:12;;;;;;;16.23;11.10;;;;;;;;;;5092320;28;20448;-68
2022/01/25 00:44:45;;;;;;;16.27;10.90;;;;;;;;;;5091143;28;20444;-68
2022/01/25 00:47:12;;;;;;;13.13;10.20;;;;;;;;;;5083194;28;20452;-68
2022/01/25 00:49:40;;;;;;;15.17;9.70;;;;;;;;;;5090167;28;20449;-68
2022/01/25 00:52:20;;;;;;;14.60;8.73;;;;;;;;;;5090369;28;20536;-68
2022/01/25 00:54:51;;;;;;;15.10;10.77;;;;;;;;;;5078564;28;20996;-68
2022/01/25 00:57:18;;;;;;;15.03;9.77;;;;;;;;;;5091746;28;20492;-68
2022/01/25 00:59:47;;;;;;;12.60;9.37;;;;;;;;;;5091704;28;20992;-68
2022/01/25 01:02:15;;;;;;;16.80;10.60;;;;;;;;;;5075164;28;20836;-68
2022/01/25 01:04:43;;;;;;;15.13;9.87;;;;;;;;;;5079935;28;20476;-68
2022/01/25 01:07:13;;;;;;;17.70;10.30;;;;;;;;;;5081546;28;20458;-67
2022/01/25 01:09:41;;;;;;;14.20;9.83;;;;;;;;;;5091847;28;20451;-68
2022/01/25 01:12:16;;;;;;;19.20;11.43;;;;;;;;;;5090744;28;20456;-67
2022/01/25 01:28:47;;;;;;;12.80;8.97;;;;;;;;;;5086380;28;20806;-68
2022/01/25 01:29:06;;;;;;;16.90;9.70;;;;;;;;;;5089613;28;20423;-68
2022/01/25 01:31:48;;;;;;;14.17;9.60;;;;;;;;;;5090910;28;20460;-68
2022/01/25 01:34:43;;;;;;;13.90;8.33;;;;;;;;;;5087609;28;20456;-68
2022/01/25 01:37:42;;;;;;;21.07;10.20;;;;;;;;;;5082938;28;20598;-68
2022/01/25 01:40:40;;;;;;;15.23;10.57;;;;;;;;;;5090847;28;20547;-68
2022/01/25 01:43:18;;;;;;;14.50;9.57;;;;;;;;;;5088162;28;20582;-68
2022/01/25 01:45:56;;;;;;;13.33;9.30;;;;;;;;;;5091219;28;20523;-67
2022/01/25 01:48:30;;;;;;;13.67;9.87;;;;;;;;;;5090944;28;20839;-68
2022/01/25 01:51:03;;;;;;;16.03;10.70;;;;;;;;;;5088399;28;20813;-68
2022/01/25 01:53:30;;;;;;;16.33;10.23;;;;;;;;;;5090374;28;20534;-67
2022/01/25 01:55:57;;;;;;;14.67;9.70;;;;;;;;;;5083605;28;20793;-67
2022/01/25 01:58:24;;;;;;;17.40;9.00;;;;;;;;;;5091081;28;20479;-68
2022/01/25 02:00:53;;;;;;;16.63;11.73;;;;;;;;;;5089913;28;20444;-67
2022/01/25 02:03:21;;;;;;;14.30;10.27;;;;;;;;;;5088018;28;20451;-67
2022/01/25 02:05:48;;;;;;;16.60;9.97;;;;;;;;;;5088870;28;20447;-67
2022/01/25 02:08:15;;;;;;;18.67;9.93;;;;;;;;;;5091209;28;20486;-68
2022/01/25 02:10:42;;;;;;;16.20;9.70;;;;;;;;;;5090804;28;20538;-68
2022/01/25 02:13:10;;;;;;;17.17;11.20;;;;;;;;;;5089862;28;20452;-67
2022/01/25 02:15:39;;;;;;;17.03;10.67;;;;;;;;;;5090758;28;20448;-67
2022/01/25 02:23:39;;;;;;;18.07;11.30;;;;;;;;;;5088833;28;20430;-67
2022/01/25 02:26:07;;;;;;;15.87;10.37;;;;;;;;;;5084007;28;20548;-68
2022/01/25 02:28:35;;;;;;;13.97;9.60;;;;;;;;;;5089282;28;20452;-67
2022/01/25 02:31:03;;;;;;;16.30;10.67;;;;;;;;;;5086037;28;20439;-67
2022/01/25 02:33:30;;;;;;;16.63;11.57;;;;;;;;;;5088982;28;20458;-68
2022/01/25 02:36:00;;;;;;;21.27;12.00;;;;;;;;;;5088444;28;20454;-68
2022/01/25 02:38:28;;;;;;;19.47;12.07;;;;;;;;;;5090661;28;20480;-68
2022/01/25 02:40:55;;;;;;;14.80;10.40;;;;;;;;;;5083243;28;20449;-68
2022/01/25 02:43:23;;;;;;;19.53;12.77;;;;;;;;;;5080667;28;20459;-68
2022/01/25 02:46:05;;;;;;;17.93;11.83;;;;;;;;;;5082061;28;20998;-67
2022/01/25 02:48:31;;;;;;;20.03;11.90;;;;;;;;;;5091043;28;20517;-68
2022/01/25 02:51:01;;;;;;;17.80;11.40;;;;;;;;;;5089350;28;20835;-67
2022/01/25 02:53:28;;;;;;;17.90;11.20;;;;;;;;;;5090181;28;20455;-68
2022/01/25 02:55:56;;;;;;;16.60;11.10;;;;;;;;;;5089277;28;20448;-68
2022/01/25 02:58:23;;;;;;;16.50;11.10;;;;;;;;;;5083702;28;20471;-67
2022/01/25 03:00:50;;;;;;;16.80;11.60;;;;;;;;;;5089215;28;20450;-67
2022/01/25 03:03:17;;;;;;;16.27;11.60;;;;;;;;;;5080264;28;20455;-68
2022/01/25 03:05:45;;;;;;;19.00;12.37;;;;;;;;;;5089784;28;20531;-67
2022/01/25 03:08:15;;;;;;;19.30;12.10;;;;;;;;;;5090500;28;20470;-68
2022/01/25 03:10:45;;;;;;;21.33;11.80;;;;;;;;;;5093864;28;20444;-67
2022/01/25 03:13:17;;;;;;;17.80;11.53;;;;;;;;;;5092776;28;20990;-68
2022/01/25 03:15:58;;;;;;;17.63;11.27;;;;;;;;;;5093497;28;20449;-68
2022/01/25 03:18:40;;;;;;;17.93;11.97;;;;;;;;;;5081561;28;20472;-68
2022/01/25 03:21:34;;;;;;;14.37;10.90;;;;;;;;;;5093700;28;20802;-67
2022/01/25 03:24:02;;;;;;;17.73;11.43;;;;;;;;;;5076470;28;20457;-68
2022/01/25 03:26:30;;;;;;;19.80;12.57;;;;;;;;;;5089171;28;20458;-68
2022/01/25 03:28:57;;;;;;;17.70;12.23;;;;;;;;;;5081831;28;20541;-67
2022/01/25 03:31:24;;;;;;;22.30;12.03;;;;;;;;;;5093032;28;20817;-68
2022/01/25 03:33:52;;;;;;;18.30;11.43;;;;;;;;;;5092625;28;20446;-67
2022/01/25 03:36:20;;;;;;;19.63;11.90;;;;;;;;;;5093484;28;20440;-67
2022/01/25 03:38:48;;;;;;;20.60;12.57;;;;;;;;;;5092696;28;21087;-67
2022/01/25 03:41:17;;;;;;;18.93;12.20;;;;;;;;;;5093238;28;20994;-68
2022/01/25 03:43:50;;;;;;;19.23;11.73;;;;;;;;;;5093509;28;20476;-68
2022/01/25 03:46:23;;;;;;;22.50;13.87;;;;;;;;;;5093741;28;20874;-68
2022/01/25 03:51:34;;;;;;;17.30;13.17;;;;;;;;;;5080945;28;20558;-67
2022/01/25 03:54:02;;;;;;;20.93;13.43;;;;;;;;;;5091949;28;20448;-67
2022/01/25 03:56:30;;;;;;;19.73;14.33;;;;;;;;;;5093503;28;20907;-67
2022/01/25 03:58:57;;;;;;;21.47;13.10;;;;;;;;;;5093095;28;20448;-67
2022/01/25 04:01:25;;;;;;;21.40;12.37;;;;;;;;;;5093348;28;20480;-67
2022/01/25 04:04:00;;;;;;;23.57;14.20;;;;;;;;;;5092195;28;20456;-67
2022/01/25 04:06:30;;;;;;;15.13;11.13;;;;;;;;;;5093426;28;20451;-67
2022/01/25 04:08:58;;;;;;;18.23;12.33;;;;;;;;;;5093005;28;20460;-68
2022/01/25 04:11:25;;;;;;;21.70;12.97;;;;;;;;;;5093193;28;20447;-68
2022/01/25 04:13:56;;;;;;;20.53;12.83;;;;;;;;;;5091721;28;20504;-67
2022/01/25 04:16:27;;;;;;;19.63;13.27;;;;;;;;;;5092943;28;20440;-67
2022/01/25 04:19:02;;;;;;;17.87;12.73;;;;;;;;;;5092248;28;20482;-68
2022/01/25 04:26:56;;;;;;;19.33;11.67;;;;;;;;;;5092235;28;20450;-67
2022/01/25 04:29:25;;;;;;;18.93;12.00;;;;;;;;;;5092955;28;20454;-68
2022/01/25 04:31:52;;;;;;;16.53;11.20;;;;;;;;;;5092079;28;20534;-67
2022/01/25 04:34:38;;;;;;;19.97;12.17;;;;;;;;;;5092238;28;20501;-67
2022/01/25 04:53:51;;;;;;;25.97;12.57;;;;;;;;;;5077932;28;20432;-68
2022/01/25 04:56:24;;;;;;;21.03;12.63;;;;;;;;;;5091789;28;21038;-67
2022/01/25 04:58:58;;;;;;;20.40;13.87;;;;;;;;;;5091392;28;20831;-67
2022/01/25 05:01:27;;;;;;;22.87;12.67;;;;;;;;;;5092430;28;20531;-68
2022/01/25 05:04:03;;;;;;;22.77;14.60;;;;;;;;;;5090787;28;20558;-68
2022/01/25 05:06:31;;;;;;;18.67;11.97;;;;;;;;;;5092030;28;20490;-67
2022/01/25 05:09:07;;;;;;;20.70;12.43;;;;;;;;;;5091354;28;20495;-68
2022/01/25 05:11:37;;;;;;;23.93;14.83;;;;;;;;;;5092109;28;20946;-68
2022/01/25 05:14:16;;;;;;;26.13;15.00;;;;;;;;;;5090632;28;20962;-68
2022/01/25 05:16:50;;;;;;;20.67;12.93;;;;;;;;;;5087446;28;20475;-66
2022/01/25 05:19:36;;;;;;;18.67;12.20;;;;;;;;;;5077052;28;20553;-68
2022/01/25 05:22:12;;;;;;;22.43;13.03;;;;;;;;;;5079111;28;20436;-69
2022/01/25 05:24:40;;;;;;;22.70;12.40;;;;;;;;;;5086609;28;20468;-68
2022/01/25 05:27:09;;;;;;;19.80;12.77;;;;;;;;;;5078012;28;20456;-68
2022/01/25 05:29:36;;;;;;;19.40;12.87;;;;;;;;;;5091739;28;20455;-68
2022/01/25 05:32:05;;;;;;;20.07;11.93;;;;;;;;;;5090796;28;20462;-68
2022/01/25 05:34:32;;;;;;;18.80;11.60;;;;;;;;;;5091321;28;20455;-69
2022/01/25 05:36:59;;;;;;;23.13;13.27;;;;;;;;;;5083905;28;20447;-69
2022/01/25 05:39:31;;;;;;;21.43;12.30;;;;;;;;;;5072809;28;20498;-68
2022/01/25 05:42:12;;;;;;;15.57;11.50;;;;;;;;;;5090874;28;20834;-69
2022/01/25 05:44:42;;;;;;;18.77;12.00;;;;;;;;;;5091328;28;20530;-73
2022/01/25 05:47:14;;;;;;;17.87;12.20;;;;;;;;;;5090831;28;20597;-69
2022/01/25 05:49:43;;;;;;;17.13;11.47;;;;;;;;;;5091359;28;20448;-68
2022/01/25 05:52:11;;;;;;;23.63;10.90;;;;;;;;;;5090242;28;20477;-69
2022/01/25 05:54:38;;;;;;;20.43;11.37;;;;;;;;;;5091446;28;20528;-68
2022/01/25 05:57:06;;;;;;;21.83;14.37;;;;;;;;;;5090204;28;20479;-69
2022/01/25 05:59:33;;;;;;;22.97;13.70;;;;;;;;;;5091298;28;20477;-69
2022/01/25 06:02:00;;;;;;;21.57;12.27;;;;;;;;;;5089732;28;20536;-70
2022/01/25 06:04:30;;;;;;;20.73;12.97;;;;;;;;;;5077690;28;20454;-69
2022/01/25 06:06:57;;;;;;;23.37;12.60;;;;;;;;;;5090302;28;20831;-70
2022/01/25 06:09:24;;;;;;;18.73;12.47;;;;;;;;;;5090455;28;20458;-69
2022/01/25 06:11:51;;;;;;;18.60;12.70;;;;;;;;;;5090718;28;20443;-68
2022/01/25 06:14:19;;;;;;;21.70;13.57;;;;;;;;;;5091048;28;20944;-68
2022/01/25 06:16:46;;;;;;;19.07;12.50;;;;;;;;;;5090925;28;20443;-69
2022/01/25 06:19:13;;;;;;;23.53;14.67;;;;;;;;;;5090634;28;20518;-68
2022/01/25 06:21:42;;;;;;;16.60;10.70;;;;;;;;;;5090935;28;20462;-68
2022/01/25 06:24:09;;;;;;;21.97;14.20;;;;;;;;;;5090529;28;21129;-69
2022/01/25 06:26:36;;;;;;;24.63;12.57;;;;;;;;;;5090609;28;20467;-68
2022/01/25 06:29:03;;;;;;;19.30;11.77;;;;;;;;;;5090255;28;20482;-68
2022/01/25 06:31:31;;;;;;;19.53;10.40;;;;;;;;;;5090408;28;20539;-69
2022/01/25 06:33:58;;;;;;;20.93;13.43;;;;;;;;;;5090001;28;20583;-69
2022/01/25 06:36:25;;;;;;;19.63;11.67;;;;;;;;;;5090450;28;21008;-68
2022/01/25 06:38:54;;;;;;;19.30;11.77;;;;;;;;;;5089797;28;20489;-68
2022/01/25 06:41:21;;;;;;;20.57;12.17;;;;;;;;;;5090673;28;20476;-69
2022/01/25 06:43:48;;;;;;;17.90;12.40;;;;;;;;;;5092499;28;20482;-68
2022/01/25 06:46:15;;;;;;;15.87;10.87;;;;;;;;;;5094833;28;20531;-68
2022/01/25 06:48:43;;;;;;;20.13;11.47;;;;;;;;;;5094961;28;20519;-68
2022/01/25 06:51:10;;;;;;;22.30;12.03;;;;;;;;;;5093519;28;20505;-69
2022/01/25 06:53:37;;;;;;;24.90;14.67;;;;;;;;;;5095407;28;20461;-69
2022/01/25 06:56:06;;;;;;;19.67;13.60;;;;;;;;;;5094278;28;20461;-69
2022/01/25 06:58:33;;;;;;;19.00;11.87;;;;;;;;;;5095199;28;20496;-69
2022/01/25 07:01:01;;;;;;;18.47;11.93;;;;;;;;;;5093874;28;20486;-69
2022/01/25 07:03:28;;;;;;;16.53;11.50;;;;;;;;;;5094912;28;20553;-70
2022/01/25 07:05:55;;;;;;;17.97;12.50;;;;;;;;;;5093576;28;20950;-69
2022/01/25 07:08:22;;;;;;;22.77;12.60;;;;;;;;;;5094850;28;20534;-69
2022/01/25 07:10:49;;;;;;;18.90;13.30;;;;;;;;;;5093523;28;20534;-68
2022/01/25 07:13:18;;;;;;;22.13;13.00;;;;;;;;;;5094450;28;20446;-69
2022/01/25 07:15:45;;;;;;;21.67;13.43;;;;;;;;;;5094302;28;20451;-69
2022/01/25 07:18:15;;;;;;;23.20;13.00;;;;;;;;;;5093661;28;20837;-68
2022/01/25 07:20:42;;;;;;;22.13;14.63;;;;;;;;;;5080381;28;20454;-68
2022/01/25 07:23:09;;;;;;;21.57;14.50;;;;;;;;;;5093212;28;20445;-68
2022/01/25 07:25:36;;;;;;;20.30;12.30;;;;;;;;;;5094002;28;20459;-68
2022/01/25 07:28:03;;;;;;;18.20;12.57;;;;;;;;;;5093134;28;20460;-69
2022/01/25 07:30:32;;;;;;;18.03;13.50;;;;;;;;;;5094041;28;20806;-68
2022/01/25 07:33:05;;;;;;;21.83;12.77;;;;;;;;;;5093146;28;20461;-68
2022/01/25 07:35:32;;;;;;;23.80;12.47;;;;;;;;;;5093834;28;20461;-68
2022/01/25 07:37:59;;;;;;;19.87;12.60;;;;;;;;;;5093449;28;20519;-68
2022/01/25 07:40:26;;;;;;;21.80;14.87;;;;;;;;;;5093612;28;20458;-69
2022/01/25 07:42:53;;;;;;;23.87;13.17;;;;;;;;;;5093215;28;20479;-68
2022/01/25 07:45:21;;;;;;;21.87;11.90;;;;;;;;;;5094210;28;20457;-68
2022/01/25 07:47:50;;;;;;;22.67;15.10;;;;;;;;;;5093245;28;20450;-68
2022/01/25 07:50:17;;;;;;;24.27;14.43;;;;;;;;;;5093356;28;20550;-68
2022/01/25 07:52:44;;;;;;;25.10;14.90;;;;;;;;;;5093335;28;20452;-68
2022/01/25 07:55:11;;;;;;;22.97;14.77;;;;;;;;;;5091511;28;20493;-68
2022/01/25 07:57:39;;;;;;;21.50;14.17;;;;;;;;;;5093534;28;20565;-68
2022/01/25 08:00:07;;;;;;;23.23;13.73;;;;;;;;;;5092585;28;20450;-68
2022/01/25 08:02:34;;;;;;;24.43;12.63;;;;;;;;;;5093532;28;20534;-68
2022/01/25 08:05:03;;;;;;;20.73;13.60;;;;;;;;;;5092535;28;20455;-68
2022/01/25 08:07:30;;;;;;;22.63;13.90;;;;;;;;;;5093094;28;20904;-68
2022/01/25 08:09:57;;;;;;;25.77;15.27;;;;;;;;;;5091841;28;20461;-68
2022/01/25 08:12:25;;;;;;;17.93;12.77;;;;;;;;;;5093250;28;20441;-68
2022/01/25 08:14:53;;;;;;;19.07;13.70;;;;;;;;;;5092434;28;20449;-68
2022/01/25 08:17:20;;;;;;;24.57;14.93;;;;;;;;;;5093143;28;20472;-68
2022/01/25 08:19:47;;;;;;;25.03;16.90;;;;;;;;;;5092138;28;20484;-68
2022/01/25 08:22:18;;;;;;;26.43;16.07;;;;;;;;;;5093568;28;20468;-68
2022/01/25 08:24:45;;;;;;;26.30;17.23;;;;;;;;;;5093171;28;20448;-68
2022/01/25 08:27:14;;;;;;;27.27;18.20;;;;;;;;;;5093391;28;20453;-68
2022/01/25 08:29:41;;;;;;;87.77;51.60;;;;;;;;;;5092773;28;20449;-68
2022/01/25 08:32:10;;;;;;;185.27;99.80;;;;;;;;;;5092415;28;20445;-68
2022/01/25 08:34:38;;;;;;;215.60;118.70;;;;;;;;;;5092710;28;20456;-68
2022/01/25 08:37:05;;;;;;;330.80;163.80;;;;;;;;;;5092238;28;20531;-68
2022/01/25 08:39:34;;;;;;;443.43;232.97;;;;;;;;;;5092493;28;20484;-69
2022/01/25 08:42:01;;;;;;;288.30;147.27;;;;;;;;;;5091576;28;20480;-68
2022/01/25 08:44:28;;;;;;;281.00;136.70;;;;;;;;;;5092472;28;20560;-68
2022/01/25 08:46:55;;;;;;;150.40;73.60;;;;;;;;;;5091566;28;20531;-68
2022/01/25 08:49:22;;;;;;;72.77;41.90;;;;;;;;;;5091888;28;20476;-68
2022/01/25 08:51:49;;;;;;;77.50;40.87;;;;;;;;;;5091832;28;20942;-68
2022/01/25 08:54:17;;;;;;;53.90;26.03;;;;;;;;;;5092096;28;20457;-68
2022/01/25 08:56:46;;;;;;;45.53;24.60;;;;;;;;;;5092046;28;20515;-68
2022/01/25 08:59:13;;;;;;;32.93;21.90;;;;;;;;;;5090961;28;20479;-68
2022/01/25 09:01:40;;;;;;;32.93;21.77;;;;;;;;;;5092434;28;20448;-68
2022/01/25 09:04:07;;;;;;;34.87;19.57;;;;;;;;;;5092212;28;20754;-68
2022/01/25 09:06:35;;;;;;;25.43;16.47;;;;;;;;;;5092308;28;20448;-68
2022/01/25 09:09:02;;;;;;;34.97;18.40;;;;;;;;;;5090746;28;20449;-68
2022/01/25 09:11:30;;;;;;;35.80;18.90;;;;;;;;;;5092051;28;20449;-68
2022/01/25 09:14:00;;;;;;;26.43;17.27;;;;;;;;;;5091789;28;20857;-68
2022/01/25 09:16:27;;;;;;;27.60;16.23;;;;;;;;;;5092192;28;20983;-68
2022/01/25 09:18:54;;;;;;;23.37;15.03;;;;;;;;;;5090654;28;20491;-68
2022/01/25 09:21:21;;;;;;;23.03;16.07;;;;;;;;;;5091801;28;20479;-68
2022/01/25 09:23:48;;;;;;;25.27;15.50;;;;;;;;;;5091596;28;20445;-68
2022/01/25 09:26:16;;;;;;;19.80;14.00;;;;;;;;;;5091782;28;20544;-68
2022/01/25 09:28:43;;;;;;;24.63;15.30;;;;;;;;;;5091386;28;20561;-68
2022/01/25 09:31:11;;;;;;;21.80;14.60;;;;;;;;;;5090680;28;20452;-68
2022/01/25 09:33:38;;;;;;;25.77;15.93;;;;;;;;;;5091415;28;20448;-68
2022/01/25 09:36:06;;;;;;;23.73;14.73;;;;;;;;;;5090538;28;20944;-68
2022/01/25 09:38:33;;;;;;;22.67;14.27;;;2.00;1.00;;;;;;5091632;28;20563;-68
2022/01/25 09:41:01;;;;;;;18.57;14.90;;;2.90;99.90;;;;;;5090610;28;20532;-68
2022/01/25 09:43:28;;;;;;;21.50;13.47;;;3.00;99.90;;;;;;5091526;28;20559;-68
2022/01/25 09:45:55;;;;;;;22.60;15.33;;;3.00;95.70;;;;;;5090856;28;20445;-68
2022/01/25 09:48:24;;;;;;;21.23;14.17;;;3.10;34.10;;;;;;5091718;28;20555;-68
2022/01/25 09:50:52;;;;;;;19.33;12.97;;;3.30;1.00;;;;;;5090419;28;20456;-68
2022/01/25 09:53:19;;;;;;;23.40;13.03;;;3.30;99.90;;;;;;5091620;28;20531;-68
2022/01/25 09:55:47;;;;;;;18.03;12.80;;;3.40;99.90;;;;;;5091205;28;20953;-68
2022/01/25 09:58:15;;;;;;;26.83;14.63;;;3.30;99.90;;;;;;5091892;28;20511;-68
2022/01/25 10:00:46;;;;;;;21.40;13.57;;;3.40;99.90;;;;;;5090924;28;20532;-68
2022/01/25 10:03:24;;;;;;;22.93;14.60;;;3.50;99.90;;;;;;5090569;28;20928;-68
2022/01/25 10:05:56;;;;;;;22.70;15.43;;;3.50;99.90;;;;;;5090083;28;20436;-68
2022/01/25 10:08:25;;;;;;;21.53;13.47;;;3.60;29.90;;;;;;5091233;28;20445;-68
2022/01/25 10:10:54;;;;;;;25.30;14.87;;;3.60;1.00;;;;;;5089689;28;20977;-68
2022/01/25 10:13:24;;;;;;;24.53;15.20;;;3.70;1.00;;;;;;5091287;28;20472;-68
2022/01/25 10:15:52;;;;;;;27.00;15.10;;;3.70;1.00;;;;;;5090493;28;20444;-68
2022/01/25 10:18:20;;;;;;;24.10;16.87;;;;;;;;;;5090056;28;20440;-68
2022/01/25 10:20:48;;;;;;;25.90;16.13;;;;;;;;;;5090318;28;20495;-68
2022/01/25 10:23:18;;;;;;;21.77;16.20;;;;;;;;;;5091097;28;20452;-68
2022/01/25 10:25:47;;;;;;;25.70;16.50;;;;;;;;;;5091049;28;20441;-68
2022/01/25 10:28:15;;;;;;;22.47;16.23;;;;;;;;;;5090637;28;20502;-68
2022/01/25 10:30:47;;;;;;;30.30;17.57;;;;;;;;;;5091026;28;20448;-68
2022/01/25 10:33:21;;;;;;;24.93;16.20;;;;;;;;;;5091097;28;20932;-69
2022/01/25 10:35:49;;;;;;;22.87;15.50;;;;;;;;;;5090150;28;20451;-69
2022/01/25 10:38:21;;;;;;;23.47;16.63;;;;;;;;;;5091364;28;20441;-67
2022/01/25 10:40:55;;;;;;;25.57;17.00;;;;;;;;;;5089765;28;21015;-68
2022/01/25 10:43:22;;;;;;;27.33;17.47;;;;;;;;;;5090465;28;20441;-69
2022/01/25 10:46:04;;;;;;;26.50;17.53;;;;;;;;;;5090377;28;20463;-69
2022/01/25 10:48:31;;;;;;;27.10;16.93;;;;;;;;;;5090379;28;20445;-69
2022/01/25 10:51:04;;;;;;;24.97;16.13;;;;;;;;;;5089714;28;20567;-68
2022/01/25 10:53:32;;;;;;;24.00;18.00;;;;;;;;;;5090810;28;20497;-68
2022/01/25 10:56:00;;;;;;;32.67;17.77;;;;;;;;;;5089436;28;20868;-69
2022/01/25 10:58:28;;;;;;;22.80;15.93;;;;;;;;;;5090453;28;20452;-69
2022/01/25 11:00:55;;;;;;;27.63;18.63;;;;;;;;;;5089796;28;20516;-68
2022/01/25 11:03:27;;;;;;;24.73;17.13;;;;;;;;;;5090294;28;20451;-69
2022/01/25 11:05:54;;;;;;;20.77;15.33;;;;;;;;;;5089582;28;20441;-68
2022/01/25 11:08:23;;;;;;;30.83;17.77;;;;;;;;;;5090671;28;20850;-69
2022/01/25 11:10:55;;;;;;;26.83;18.00;;;;;;;;;;5089601;28;20463;-69
2022/01/25 11:13:35;;;;;;;26.40;17.93;;;;;;;;;;5090700;28;20436;-68
2022/01/25 11:16:03;;;;;;;28.80;17.03;;;;;;;;;;5090409;28;20440;-69
2022/01/25 11:18:31;;;;;;;28.10;16.80;;;;;;;;;;5090275;28;20471;-69
2022/01/25 11:20:59;;;;;;;25.30;16.40;;;;;;;;;;5089995;28;20519;-68
2022/01/25 11:23:26;;;;;;;23.13;16.73;;;;;;;;;;5090554;28;20444;-69
2022/01/25 11:25:55;;;;;;;22.53;16.83;;;;;;;;;;5089675;28;20811;-69
2022/01/25 11:28:23;;;;;;;27.07;17.70;;;;;;;;;;5090222;28;20463;-69
2022/01/25 11:30:51;;;;;;;24.80;17.33;;;;;;;;;;5092948;28;20448;-69
2022/01/25 11:33:20;;;;;;;26.20;17.70;;;;;;;;;;5094013;28;20448;-69
2022/01/25 11:35:47;;;;;;;23.20;16.67;;;;;;;;;;5093608;28;20539;-70
2022/01/25 11:38:14;;;;;;;27.33;17.63;;;;;;;;;;5093841;28;20444;-69
2022/01/25 11:40:43;;;;;;;27.10;17.90;;;;;;;;;;5093542;28;20572;-70
2022/01/25 11:43:13;;;;;;;27.40;17.80;;;;;;;;;;5092931;28;20551;-67
2022/01/25 11:45:41;;;;;;;28.73;17.73;;;;;;;;;;5093847;28;20443;-67
2022/01/25 11:48:08;;;;;;;27.77;17.40;;;;;;;;;;5092657;28;20543;-67
2022/01/25 11:50:36;;;;;;;25.60;17.63;;;;;;;;;;5093528;28;20456;-68
2022/01/25 11:53:07;;;;;;;24.13;17.40;;;;;;;;;;5092626;28;20456;-67
2022/01/25 11:55:35;;;;;;;27.80;18.90;;;;;;;;;;5093852;28;20448;-68
2022/01/25 11:58:04;;;;;;;22.77;15.87;;;;;;;;;;5093465;28;20575;-68
2022/01/25 12:00:41;;;;;;;20.40;16.90;;;;;;;;;;5093159;28;20480;-68
2022/01/25 12:03:26;;;;;;;21.43;16.07;;;;;;;;;;5093118;28;20531;-67
2022/01/25 12:05:59;;;;;;;28.20;18.10;;;;;;;;;;5092696;28;20497;-68
2022/01/25 12:08:38;;;;;;;24.70;18.03;;;;;;;;;;5093073;28;20452;-70
2022/01/25 12:11:20;;;;;;;27.13;17.27;;;;;;;;;;5080653;28;20460;-68
2022/01/25 12:13:47;;;;;;;24.53;17.53;;;;;;;;;;5093175;28;20472;-68
2022/01/25 12:16:27;;;;;;;29.93;19.17;;;;;;;;;;5092831;28;20447;-68
2022/01/25 12:18:58;;;;;;;30.23;19.93;;;;;;;;;;5092120;28;20425;-68
2022/01/25 12:21:44;;;;;;;29.67;19.40;;;;;;;;;;5092697;28;20473;-69
2022/01/25 12:24:18;;;;;;;34.63;19.90;;;;;;;;;;5081152;28;20533;-68
2022/01/25 12:26:57;;;;;;;31.67;19.93;;;;;;;;;;5092864;28;20471;-68
2022/01/25 12:29:31;;;;;;;28.87;20.40;;;;;;;;;;5092905;28;20894;-68
2022/01/25 12:32:13;;;;;;;28.83;19.17;;;;;;;;;;5092029;28;20515;-68
2022/01/25 12:34:55;;;;;;;27.80;18.20;;;;;;;;;;5092303;28;20502;-68
2022/01/25 12:37:37;;;;;;;28.77;19.20;;;;;;;;;;5093117;28;20451;-68
2022/01/25 12:40:19;;;;;;;26.10;18.20;;;;;;;;;;5071027;28;20487;-68
2022/01/25 12:42:48;;;;;;;29.73;19.17;;;;;;;;;;5087313;28;20455;-68
2022/01/25 12:45:18;;;;;;;29.07;19.30;;;;;;;;;;5092749;28;20486;-68
2022/01/25 12:47:51;;;;;;;28.70;20.87;;;;;;;;;;5092592;28;20528;-68
2022/01/25 12:50:19;;;;;;;25.90;18.20;;;;;;;;;;5092441;28;20535;-68
2022/01/25 12:52:46;;;;;;;30.33;19.60;;;;;;;;;;5092546;28;20444;-68
2022/01/25 12:55:13;;;;;;;31.50;19.93;;;;;;;;;;5091672;28;20940;-69
2022/01/25 12:57:47;;;;;;;31.17;22.50;;;;;;;;;;5092067;28;20877;-69
2022/01/25 13:00:15;;;;;;;28.70;19.23;;;;;;;;;;5091693;28;20468;-68
2022/01/25 13:02:42;;;;;;;27.60;19.27;;;;;;;;;;5092259;28;20497;-68
2022/01/25 13:05:16;;;;;;;25.80;18.27;;;;;;;;;;5091460;28;20739;-69
2022/01/25 13:07:43;;;;;;;30.63;19.93;;;;;;;;;;5078896;28;20533;-69
2022/01/25 13:10:12;;;;;;;24.93;19.00;;;;;;;;;;5090648;28;20456;-68
2022/01/25 13:12:55;;;;;;;30.50;18.13;;;;;;;;;;5092195;28;20444;-68
2022/01/25 13:15:40;;;;;;;28.17;20.07;;;;;;;;;;5092058;28;20437;-68
2022/01/25 13:18:11;;;;;;;31.03;18.87;;;;;;;;;;5091509;28;20865;-68
2022/01/25 13:20:39;;;;;;;27.47;20.20;;;;;;;;;;5091872;28;20488;-69
2022/01/25 13:23:06;;;;;;;28.70;19.87;;;;;;;;;;5091206;28;20445;-68
2022/01/25 13:25:53;;;;;;;26.00;18.43;;;;;;;;;;5092696;28;20445;-68
2022/01/25 13:28:33;;;;;;;29.90;19.10;;;;;;;;;;5091611;28;20444;-68
2022/01/25 13:31:01;;;;;;;28.40;18.83;;;;;;;;;;5091552;28;20475;-68
2022/01/25 13:33:29;;;;;;;25.33;18.03;;;;;;;;;;5092004;28;20484;-69
2022/01/25 13:35:57;;;;;;;27.73;19.73;;;;;;;;;;5090588;28;20944;-68
2022/01/25 13:38:25;;;;;;;33.70;20.53;;;;;;;;;;5090909;28;21013;-69
2022/01/25 13:40:57;;;;;;;33.20;21.27;;;;;;;;;;5090422;28;21021;-68
2022/01/25 13:45:42;;;;;;;30.73;19.13;;;;;;;;;;5081919;28;20440;-69
2022/01/25 13:46:22;;;;;;;28.27;18.10;;;;;;;;;;5090953;28;20444;-68
2022/01/25 13:48:50;;;;;;;31.00;19.00;;;;;;;;;;5090543;28;20459;-68
2022/01/25 13:51:18;;;;;;;26.67;17.50;;;;;;;;;;5091302;28;20452;-69
2022/01/25 13:53:50;;;;;;;30.80;19.90;;;;;;;;;;5090564;28;20452;-70
2022/01/25 13:56:18;;;;;;;29.37;20.00;;;;;;;;;;5090736;28;20578;-68
2022/01/25 13:58:47;;;;;;;25.17;17.80;;;;;;;;;;5090756;28;20499;-68
2022/01/25 14:01:15;;;;;;;28.80;17.50;;;;;;;;;;5091335;28;20563;-68
2022/01/25 14:03:45;;;;;;;28.93;19.30;;;;;;;;;;5091009;28;20450;-68
2022/01/25 14:06:23;;;;;;;27.27;20.60;;;;;;;;;;5091125;28;20524;-68
2022/01/25 14:08:51;;;;;;;31.53;18.30;;;;;;;;;;5090464;28;20476;-68
2022/01/25 14:11:22;;;;;;;29.33;18.90;;;;;;;;;;5091193;28;20544;-68
2022/01/25 14:24:54;;;;;;;30.10;19.60;;;;;;;;;;5055175;28;20432;-68
2022/01/25 14:27:23;;;;;;;33.60;21.40;;;;;;;;;;5091053;28;20865;-68
2022/01/25 14:29:52;;;;;;;33.27;19.60;;;;;;;;;;5089544;28;20554;-68
2022/01/25 14:32:28;;;;;;;34.03;20.73;;;;;;;;;;5090916;28;20467;-69
2022/01/25 14:35:05;;;;;;;37.87;21.30;;;;;;;;;;5089692;28;20432;-68
2022/01/25 14:37:32;;;;;;;29.63;19.80;;;;;;;;;;5090353;28;20931;-68
2022/01/25 14:40:06;;;;;;;29.33;19.07;;;;;;;;;;5089233;28;20448;-68
2022/01/25 14:42:33;;;;;;;29.10;18.40;;;;;;;;;;5090144;28;20949;-69
2022/01/25 14:45:04;;;;;;;28.40;18.57;;;;;;;;;;5089964;28;20448;-68
2022/01/25 14:47:37;;;;;;;29.43;18.33;;;;;;;;;;5090727;28;20456;-68
2022/01/25 14:50:08;;;;;;;26.50;18.43;;;;;;;;;;5090322;28;20843;-68
2022/01/25 14:52:35;;;;;;;28.87;17.80;;;;;;;;;;5090976;28;20444;-68
2022/01/25 14:55:03;;;;;;;35.33;19.87;;;;;;;;;;5090354;28;20851;-68
2022/01/25 14:57:50;;;;;;;28.73;19.47;;;;;;;;;;5090838;28;20482;-68
2022/01/25 15:00:17;;;;;;;25.60;17.93;;;;;;;;;;5090552;28;20472;-68
2022/01/25 15:02:44;;;;;;;31.87;20.23;;;;;;;;;;5090522;28;20528;-69
2022/01/25 15:05:13;;;;;;;34.20;20.53;;;;;;;;;;5092163;28;20472;-68
2022/01/25 15:07:40;;;;;;;31.87;19.63;;;;;;;;;;5080427;28;20444;-68
2022/01/25 15:10:09;;;;;;;29.17;18.77;;;;;;;;;;5093106;28;20488;-68
2022/01/25 15:12:41;;;;;;;30.43;19.13;;;;;;;;;;5094220;28;20452;-68
2022/01/25 15:15:12;;;;;;;36.40;20.33;;;;;;;;;;5093723;28;20546;-68
2022/01/25 15:17:39;;;;;;;35.40;20.67;;;;;;;;;;5094384;28;20790;-68
2022/01/25 15:20:08;;;;;;;33.97;21.37;;;;;;;;;;5093037;28;20531;-69
2022/01/25 15:22:38;;;;;;;33.00;19.83;;;;;;;;;;5094201;28;20483;-68
2022/01/25 15:25:07;;;;;;;37.83;21.00;;;;;;;;;;5093435;28;20485;-68
2022/01/25 15:27:34;;;;;;;32.57;21.70;;;;;;;;;;5094326;28;20950;-69
2022/01/25 15:30:03;;;;;;;40.50;22.60;;;;;;;;;;5093013;28;20864;-68
2022/01/25 15:32:30;;;;;;;39.30;23.00;;;;;;;;;;5094442;28;20449;-68
2022/01/25 15:34:57;;;;;;;36.37;20.60;;;;;;;;;;5093730;28;20800;-68
2022/01/25 15:37:25;;;;;;;38.13;20.47;;;;;;;;;;5093976;28;20491;-68
2022/01/25 15:39:53;;;;;;;33.53;19.67;;;;;;;;;;5093143;28;20448;-68
2022/01/25 15:42:23;;;;;;;38.47;22.53;;;;;;;;;;5094007;28;20480;-68